aviador You're here:

OMAD Decoded Metar

ABU DHABI in UNITED ARAB EMIRATES
Report Time2017-11-24 11:00:00
UTC Time2017-11-24 11:15:23
Flight Rules vfr VFR
Wind360° at 06 kt
W.Decomp.*RWY 31: 4.0 kt HW 4.5 kt RCW
Visibility9999 m
Phenomena:N/A
Clouds:N/A
Expected CloudBase > 4,000 ft AGL from Temp-Dew spread
CeilingNone
Temp27°C (ISA +12)
Dew Point17°C (54% RH)
Heat Index27.7°C
QNH1015 hPa
Density Alt1,588 ft
Elevation10 ft
Report Wrong Elevation
Raw Report
METAR OMAD 241100Z 36006KT 320V030 CAVOK 27/17 Q1015 NOSIG=

Extra information for OMAD:More info

Metar Taf Metar & Taf Last 4 Metars F.Rules Stats Wind Profile Meteogram Temp Stats Airport Information Weather charts Add Link Nearby VenuesMetar ALERT Operation Metar Decoded Social comments